sensor_id;sensor_type;location;lat;lon;timestamp;temperature;humidity
63537;DHT22;49686;51.880;5.632;2023-06-22T00:00:07;16.20;99.90
63537;DHT22;49686;51.880;5.632;2023-06-22T00:02:36;16.20;99.90
63537;DHT22;49686;51.880;5.632;2023-06-22T00:05:07;16.20;99.90
63537;DHT22;49686;51.880;5.632;2023-06-22T00:07:34;16.10;99.90
63537;DHT22;49686;51.880;5.632;2023-06-22T00:10:01;16.10;99.90
63537;DHT22;49686;51.880;5.632;2023-06-22T00:12:30;16.10;99.90
63537;DHT22;49686;51.880;5.632;2023-06-22T00:14:57;16.10;99.90
63537;DHT22;49686;51.880;5.632;2023-06-22T00:17:23;16.00;99.90
63537;DHT22;49686;51.880;5.632;2023-06-22T00:19:52;16.00;99.90
63537;DHT22;49686;51.880;5.632;2023-06-22T00:22:20;16.00;99.90
63537;DHT22;49686;51.880;5.632;2023-06-22T00:24:47;15.90;99.90
63537;DHT22;49686;51.880;5.632;2023-06-22T00:27:17;15.90;99.90
63537;DHT22;49686;51.880;5.632;2023-06-22T00:29:44;15.80;99.90
63537;DHT22;49686;51.880;5.632;2023-06-22T00:32:13;15.80;99.90
63537;DHT22;49686;51.880;5.632;2023-06-22T00:34:40;15.80;99.90
63537;DHT22;49686;51.880;5.632;2023-06-22T00:37:07;15.70;99.90
63537;DHT22;49686;51.880;5.632;2023-06-22T00:39:35;15.70;99.90
63537;DHT22;49686;51.880;5.632;2023-06-22T00:42:02;15.70;99.90
63537;DHT22;49686;51.880;5.632;2023-06-22T00:44:29;15.60;99.90
63537;DHT22;49686;51.880;5.632;2023-06-22T00:46:56;15.60;99.90
63537;DHT22;49686;51.880;5.632;2023-06-22T00:49:23;15.50;99.90
63537;DHT22;49686;51.880;5.632;2023-06-22T00:51:50;15.50;99.90
63537;DHT22;49686;51.880;5.632;2023-06-22T00:54:17;15.50;99.90
63537;DHT22;49686;51.880;5.632;2023-06-22T00:56:45;15.50;99.90
63537;DHT22;49686;51.880;5.632;2023-06-22T00:59:12;15.50;99.90
63537;DHT22;49686;51.880;5.632;2023-06-22T01:01:39;15.40;99.90
63537;DHT22;49686;51.880;5.632;2023-06-22T01:04:06;15.30;99.90
63537;DHT22;49686;51.880;5.632;2023-06-22T01:06:40;15.30;99.90
63537;DHT22;49686;51.880;5.632;2023-06-22T01:09:12;15.20;99.90
63537;DHT22;49686;51.880;5.632;2023-06-22T01:11:44;15.20;99.90
63537;DHT22;49686;51.880;5.632;2023-06-22T01:14:20;15.10;99.90
63537;DHT22;49686;51.880;5.632;2023-06-22T01:16:51;15.00;99.90
63537;DHT22;49686;51.880;5.632;2023-06-22T01:19:29;15.00;99.90
63537;DHT22;49686;51.880;5.632;2023-06-22T01:22:02;15.00;99.90
63537;DHT22;49686;51.880;5.632;2023-06-22T01:24:33;14.90;99.90
63537;DHT22;49686;51.880;5.632;2023-06-22T01:27:17;14.90;99.90
63537;DHT22;49686;51.880;5.632;2023-06-22T01:29:55;14.90;99.90
63537;DHT22;49686;51.880;5.632;2023-06-22T01:32:23;14.80;99.90
63537;DHT22;49686;51.880;5.632;2023-06-22T01:34:51;14.80;99.90
63537;DHT22;49686;51.880;5.632;2023-06-22T01:37:18;14.70;99.90
63537;DHT22;49686;51.880;5.632;2023-06-22T01:39:45;14.70;99.90
63537;DHT22;49686;51.880;5.632;2023-06-22T01:42:12;14.80;99.90
63537;DHT22;49686;51.880;5.632;2023-06-22T01:44:41;14.70;99.90
63537;DHT22;49686;51.880;5.632;2023-06-22T01:47:10;14.70;99.90
63537;DHT22;49686;51.880;5.632;2023-06-22T01:49:40;14.70;99.90
63537;DHT22;49686;51.880;5.632;2023-06-22T01:52:07;14.70;99.90
63537;DHT22;49686;51.880;5.632;2023-06-22T01:54:34;14.70;99.90
63537;DHT22;49686;51.880;5.632;2023-06-22T01:57:01;14.70;99.90
63537;DHT22;49686;51.880;5.632;2023-06-22T01:59:31;14.70;99.90
63537;DHT22;49686;51.880;5.632;2023-06-22T02:02:01;14.70;99.90
63537;DHT22;49686;51.880;5.632;2023-06-22T02:04:34;14.70;99.90
63537;DHT22;49686;51.880;5.632;2023-06-22T02:07:12;14.60;99.90
63537;DHT22;49686;51.880;5.632;2023-06-22T02:09:48;14.50;99.90
63537;DHT22;49686;51.880;5.632;2023-06-22T02:12:18;14.50;99.90
63537;DHT22;49686;51.880;5.632;2023-06-22T02:14:48;14.50;99.90
63537;DHT22;49686;51.880;5.632;2023-06-22T02:17:17;14.50;99.90
63537;DHT22;49686;51.880;5.632;2023-06-22T02:19:45;14.50;99.90
63537;DHT22;49686;51.880;5.632;2023-06-22T02:22:12;14.50;99.90
63537;DHT22;49686;51.880;5.632;2023-06-22T02:24:39;14.40;99.90
63537;DHT22;49686;51.880;5.632;2023-06-22T02:27:06;14.40;99.90
63537;DHT22;49686;51.880;5.632;2023-06-22T02:29:34;14.40;99.90
63537;DHT22;49686;51.880;5.632;2023-06-22T02:32:01;14.30;99.90
63537;DHT22;49686;51.880;5.632;2023-06-22T02:34:28;14.30;99.90
63537;DHT22;49686;51.880;5.632;2023-06-22T02:36:56;14.20;99.90
63537;DHT22;49686;51.880;5.632;2023-06-22T02:39:25;14.20;99.90
63537;DHT22;49686;51.880;5.632;2023-06-22T02:41:53;14.20;99.90
63537;DHT22;49686;51.880;5.632;2023-06-22T02:44:20;14.20;99.90
63537;DHT22;49686;51.880;5.632;2023-06-22T02:46:48;14.20;99.90
63537;DHT22;49686;51.880;5.632;2023-06-22T02:49:15;14.30;99.90
63537;DHT22;49686;51.880;5.632;2023-06-22T02:51:46;14.30;99.90
63537;DHT22;49686;51.880;5.632;2023-06-22T02:54:15;14.30;99.90
63537;DHT22;49686;51.880;5.632;2023-06-22T02:56:45;14.30;99.90
63537;DHT22;49686;51.880;5.632;2023-06-22T02:59:12;14.20;99.90
63537;DHT22;49686;51.880;5.632;2023-06-22T03:01:39;14.20;99.90
63537;DHT22;49686;51.880;5.632;2023-06-22T03:04:06;14.20;99.90
63537;DHT22;49686;51.880;5.632;2023-06-22T03:06:36;14.20;99.90
63537;DHT22;49686;51.880;5.632;2023-06-22T03:09:04;14.20;99.90
63537;DHT22;49686;51.880;5.632;2023-06-22T03:11:33;14.20;99.90
63537;DHT22;49686;51.880;5.632;2023-06-22T03:14:01;14.20;99.90
63537;DHT22;49686;51.880;5.632;2023-06-22T03:16:28;14.20;99.90
63537;DHT22;49686;51.880;5.632;2023-06-22T03:18:55;14.20;99.90
63537;DHT22;49686;51.880;5.632;2023-06-22T03:21:22;14.20;99.90
63537;DHT22;49686;51.880;5.632;2023-06-22T03:23:49;14.10;99.90
63537;DHT22;49686;51.880;5.632;2023-06-22T03:26:18;14.10;99.90
63537;DHT22;49686;51.880;5.632;2023-06-22T03:28:46;14.10;99.90
63537;DHT22;49686;51.880;5.632;2023-06-22T03:31:13;14.10;99.90
63537;DHT22;49686;51.880;5.632;2023-06-22T03:33:40;14.10;99.90
63537;DHT22;49686;51.880;5.632;2023-06-22T03:36:07;14.00;99.90
63537;DHT22;49686;51.880;5.632;2023-06-22T03:38:33;14.10;99.90
63537;DHT22;49686;51.880;5.632;2023-06-22T03:41:00;14.10;99.90
63537;DHT22;49686;51.880;5.632;2023-06-22T03:43:27;14.10;99.90
63537;DHT22;49686;51.880;5.632;2023-06-22T03:45:55;14.10;99.90
63537;DHT22;49686;51.880;5.632;2023-06-22T03:48:25;14.10;99.90
63537;DHT22;49686;51.880;5.632;2023-06-22T03:50:52;14.10;99.90
63537;DHT22;49686;51.880;5.632;2023-06-22T03:53:19;14.10;99.90
63537;DHT22;49686;51.880;5.632;2023-06-22T03:55:55;14.10;99.90
63537;DHT22;49686;51.880;5.632;2023-06-22T03:58:22;14.10;99.90
63537;DHT22;49686;51.880;5.632;2023-06-22T04:00:51;14.10;99.90
63537;DHT22;49686;51.880;5.632;2023-06-22T04:03:20;14.10;99.90
63537;DHT22;49686;51.880;5.632;2023-06-22T04:05:47;14.20;99.90
63537;DHT22;49686;51.880;5.632;2023-06-22T04:08:14;14.20;99.90
63537;DHT22;49686;51.880;5.632;2023-06-22T04:10:41;14.20;99.90
63537;DHT22;49686;51.880;5.632;2023-06-22T04:13:08;14.30;99.90
63537;DHT22;49686;51.880;5.632;2023-06-22T04:15:35;14.40;99.90
63537;DHT22;49686;51.880;5.632;2023-06-22T04:18:02;14.40;99.90
63537;DHT22;49686;51.880;5.632;2023-06-22T04:20:34;14.60;99.90
63537;DHT22;49686;51.880;5.632;2023-06-22T04:23:01;14.90;99.90
63537;DHT22;49686;51.880;5.632;2023-06-22T04:25:28;15.40;99.90
63537;DHT22;49686;51.880;5.632;2023-06-22T04:27:55;15.80;99.90
63537;DHT22;49686;51.880;5.632;2023-06-22T04:30:21;16.20;99.90
63537;DHT22;49686;51.880;5.632;2023-06-22T04:32:49;16.60;99.90
63537;DHT22;49686;51.880;5.632;2023-06-22T04:35:16;17.00;99.90
63537;DHT22;49686;51.880;5.632;2023-06-22T04:37:44;17.60;99.90
63537;DHT22;49686;51.880;5.632;2023-06-22T04:40:11;18.30;99.90
63537;DHT22;49686;51.880;5.632;2023-06-22T04:42:38;18.70;99.90
63537;DHT22;49686;51.880;5.632;2023-06-22T04:45:06;19.00;99.90
63537;DHT22;49686;51.880;5.632;2023-06-22T04:47:33;18.70;99.90
63537;DHT22;49686;51.880;5.632;2023-06-22T04:49:59;18.20;99.90
63537;DHT22;49686;51.880;5.632;2023-06-22T04:52:26;17.90;99.90
63537;DHT22;49686;51.880;5.632;2023-06-22T04:54:55;17.70;99.90
63537;DHT22;49686;51.880;5.632;2023-06-22T04:57:22;17.80;99.90
63537;DHT22;49686;51.880;5.632;2023-06-22T04:59:48;17.80;99.90
63537;DHT22;49686;51.880;5.632;2023-06-22T05:02:15;17.90;99.90
63537;DHT22;49686;51.880;5.632;2023-06-22T05:04:42;18.40;99.90
63537;DHT22;49686;51.880;5.632;2023-06-22T05:07:09;19.20;99.90
63537;DHT22;49686;51.880;5.632;2023-06-22T05:09:36;20.10;99.90
63537;DHT22;49686;51.880;5.632;2023-06-22T05:12:06;20.90;99.90
63537;DHT22;49686;51.880;5.632;2023-06-22T05:14:36;21.10;99.90
63537;DHT22;49686;51.880;5.632;2023-06-22T05:17:04;20.90;99.90
63537;DHT22;49686;51.880;5.632;2023-06-22T05:19:31;20.20;99.90
63537;DHT22;49686;51.880;5.632;2023-06-22T05:21:59;20.00;99.90
63537;DHT22;49686;51.880;5.632;2023-06-22T05:24:26;19.90;99.90
63537;DHT22;49686;51.880;5.632;2023-06-22T05:26:53;19.90;99.90
63537;DHT22;49686;51.880;5.632;2023-06-22T05:29:21;20.40;99.90
63537;DHT22;49686;51.880;5.632;2023-06-22T05:31:51;21.10;99.90
63537;DHT22;49686;51.880;5.632;2023-06-22T05:34:20;21.90;99.90
63537;DHT22;49686;51.880;5.632;2023-06-22T05:36:48;22.30;99.90
63537;DHT22;49686;51.880;5.632;2023-06-22T05:39:15;22.00;99.90
63537;DHT22;49686;51.880;5.632;2023-06-22T05:41:42;21.40;99.90
63537;DHT22;49686;51.880;5.632;2023-06-22T05:44:09;21.50;99.90
63537;DHT22;49686;51.880;5.632;2023-06-22T05:46:40;21.60;99.90
63537;DHT22;49686;51.880;5.632;2023-06-22T05:49:11;22.30;99.90
63537;DHT22;49686;51.880;5.632;2023-06-22T05:51:37;22.70;99.90
63537;DHT22;49686;51.880;5.632;2023-06-22T05:54:04;22.60;99.90
63537;DHT22;49686;51.880;5.632;2023-06-22T05:56:31;23.10;99.90
63537;DHT22;49686;51.880;5.632;2023-06-22T05:58:58;22.50;99.90
63537;DHT22;49686;51.880;5.632;2023-06-22T06:01:25;22.10;99.90
63537;DHT22;49686;51.880;5.632;2023-06-22T06:03:56;22.00;99.90
63537;DHT22;49686;51.880;5.632;2023-06-22T06:06:22;22.30;99.90
63537;DHT22;49686;51.880;5.632;2023-06-22T06:08:49;22.60;99.90
63537;DHT22;49686;51.880;5.632;2023-06-22T06:11:16;22.40;99.90
63537;DHT22;49686;51.880;5.632;2023-06-22T06:13:46;22.20;99.90
63537;DHT22;49686;51.880;5.632;2023-06-22T06:16:13;21.50;99.90
63537;DHT22;49686;51.880;5.632;2023-06-22T06:18:39;21.50;99.90
63537;DHT22;49686;51.880;5.632;2023-06-22T06:21:08;22.50;99.90
63537;DHT22;49686;51.880;5.632;2023-06-22T06:23:36;23.20;99.90
63537;DHT22;49686;51.880;5.632;2023-06-22T06:26:02;23.10;99.90
63537;DHT22;49686;51.880;5.632;2023-06-22T06:28:29;23.10;99.90
63537;DHT22;49686;51.880;5.632;2023-06-22T06:30:56;22.90;99.90
63537;DHT22;49686;51.880;5.632;2023-06-22T06:33:24;22.50;99.90
63537;DHT22;49686;51.880;5.632;2023-06-22T06:35:58;22.40;99.90
63537;DHT22;49686;51.880;5.632;2023-06-22T06:38:27;22.60;99.90
63537;DHT22;49686;51.880;5.632;2023-06-22T06:40:56;23.50;99.90
63537;DHT22;49686;51.880;5.632;2023-06-22T06:43:23;24.00;99.90
63537;DHT22;49686;51.880;5.632;2023-06-22T06:45:50;23.80;99.90
63537;DHT22;49686;51.880;5.632;2023-06-22T06:48:18;23.50;99.90
63537;DHT22;49686;51.880;5.632;2023-06-22T06:50:45;23.40;99.90
63537;DHT22;49686;51.880;5.632;2023-06-22T06:53:12;23.70;99.90
63537;DHT22;49686;51.880;5.632;2023-06-22T06:55:40;24.10;99.90
63537;DHT22;49686;51.880;5.632;2023-06-22T06:58:14;23.60;99.90
63537;DHT22;49686;51.880;5.632;2023-06-22T07:00:43;23.40;99.90
63537;DHT22;49686;51.880;5.632;2023-06-22T07:03:13;23.00;99.90
63537;DHT22;49686;51.880;5.632;2023-06-22T07:05:40;22.80;99.90
63537;DHT22;49686;51.880;5.632;2023-06-22T07:08:11;22.30;99.90
63537;DHT22;49686;51.880;5.632;2023-06-22T07:10:42;22.30;99.90
63537;DHT22;49686;51.880;5.632;2023-06-22T07:13:09;22.50;99.90
63537;DHT22;49686;51.880;5.632;2023-06-22T07:15:36;22.40;99.90
63537;DHT22;49686;51.880;5.632;2023-06-22T07:18:05;22.30;99.90
63537;DHT22;49686;51.880;5.632;2023-06-22T07:20:32;22.60;99.90
63537;DHT22;49686;51.880;5.632;2023-06-22T07:22:59;23.30;99.90
63537;DHT22;49686;51.880;5.632;2023-06-22T07:25:26;23.30;99.90
63537;DHT22;49686;51.880;5.632;2023-06-22T07:28:02;23.50;99.90
63537;DHT22;49686;51.880;5.632;2023-06-22T07:30:29;23.30;99.90
63537;DHT22;49686;51.880;5.632;2023-06-22T07:32:57;23.30;99.90
63537;DHT22;49686;51.880;5.632;2023-06-22T07:35:25;23.50;99.90
63537;DHT22;49686;51.880;5.632;2023-06-22T07:37:55;23.80;99.90
63537;DHT22;49686;51.880;5.632;2023-06-22T07:40:22;24.10;99.90
63537;DHT22;49686;51.880;5.632;2023-06-22T07:42:49;23.80;99.90
63537;DHT22;49686;51.880;5.632;2023-06-22T07:45:17;23.80;99.90
63537;DHT22;49686;51.880;5.632;2023-06-22T07:47:44;23.90;99.90
63537;DHT22;49686;51.880;5.632;2023-06-22T07:50:11;23.80;99.90
63537;DHT22;49686;51.880;5.632;2023-06-22T07:52:37;23.70;99.90
63537;DHT22;49686;51.880;5.632;2023-06-22T07:55:04;23.50;99.90
63537;DHT22;49686;51.880;5.632;2023-06-22T07:57:33;23.30;99.90
63537;DHT22;49686;51.880;5.632;2023-06-22T08:00:00;23.20;99.90
63537;DHT22;49686;51.880;5.632;2023-06-22T08:02:28;22.80;99.90
63537;DHT22;49686;51.880;5.632;2023-06-22T08:04:55;22.90;99.90
63537;DHT22;49686;51.880;5.632;2023-06-22T08:07:36;22.60;99.90
63537;DHT22;49686;51.880;5.632;2023-06-22T08:10:05;22.80;99.90
63537;DHT22;49686;51.880;5.632;2023-06-22T08:12:32;23.00;99.90
63537;DHT22;49686;51.880;5.632;2023-06-22T08:15:03;23.00;99.90
63537;DHT22;49686;51.880;5.632;2023-06-22T08:17:32;23.20;99.90
63537;DHT22;49686;51.880;5.632;2023-06-22T08:19:59;23.30;99.90
63537;DHT22;49686;51.880;5.632;2023-06-22T08:22:26;23.10;99.90
63537;DHT22;49686;51.880;5.632;2023-06-22T08:24:52;23.50;99.90
63537;DHT22;49686;51.880;5.632;2023-06-22T08:27:19;24.00;99.90
63537;DHT22;49686;51.880;5.632;2023-06-22T08:29:49;24.20;99.90
63537;DHT22;49686;51.880;5.632;2023-06-22T08:32:16;24.20;99.90
63537;DHT22;49686;51.880;5.632;2023-06-22T08:34:45;24.10;99.90
63537;DHT22;49686;51.880;5.632;2023-06-22T08:37:12;23.80;99.90
63537;DHT22;49686;51.880;5.632;2023-06-22T08:39:41;23.70;99.90
63537;DHT22;49686;51.880;5.632;2023-06-22T08:42:08;23.60;99.90
63537;DHT22;49686;51.880;5.632;2023-06-22T08:44:37;23.40;99.90
63537;DHT22;49686;51.880;5.632;2023-06-22T08:47:04;23.50;99.90
63537;DHT22;49686;51.880;5.632;2023-06-22T08:49:31;23.30;99.90
63537;DHT22;49686;51.880;5.632;2023-06-22T08:52:01;23.30;99.90
63537;DHT22;49686;51.880;5.632;2023-06-22T08:54:28;23.30;99.90
63537;DHT22;49686;51.880;5.632;2023-06-22T08:56:55;23.40;99.90
63537;DHT22;49686;51.880;5.632;2023-06-22T08:59:22;23.90;99.90
63537;DHT22;49686;51.880;5.632;2023-06-22T09:01:49;24.20;99.90
63537;DHT22;49686;51.880;5.632;2023-06-22T09:04:16;24.20;99.90
63537;DHT22;49686;51.880;5.632;2023-06-22T09:06:43;24.30;99.90
63537;DHT22;49686;51.880;5.632;2023-06-22T09:09:12;24.60;99.90
63537;DHT22;49686;51.880;5.632;2023-06-22T09:11:39;24.40;99.90
63537;DHT22;49686;51.880;5.632;2023-06-22T09:14:06;24.40;99.90
63537;DHT22;49686;51.880;5.632;2023-06-22T09:16:41;24.20;99.90
63537;DHT22;49686;51.880;5.632;2023-06-22T09:19:08;24.20;99.90
63537;DHT22;49686;51.880;5.632;2023-06-22T09:21:35;23.70;99.90
63537;DHT22;49686;51.880;5.632;2023-06-22T09:24:08;23.40;99.90
63537;DHT22;49686;51.880;5.632;2023-06-22T09:26:36;23.40;99.90
63537;DHT22;49686;51.880;5.632;2023-06-22T09:29:04;23.50;99.90
63537;DHT22;49686;51.880;5.632;2023-06-22T09:31:32;23.60;99.90
63537;DHT22;49686;51.880;5.632;2023-06-22T09:33:59;23.50;99.90
63537;DHT22;49686;51.880;5.632;2023-06-22T09:36:25;23.50;99.90
63537;DHT22;49686;51.880;5.632;2023-06-22T09:38:52;23.40;99.90
63537;DHT22;49686;51.880;5.632;2023-06-22T09:41:19;23.40;99.90
63537;DHT22;49686;51.880;5.632;2023-06-22T09:43:49;23.30;99.90
63537;DHT22;49686;51.880;5.632;2023-06-22T09:46:16;23.10;99.90
63537;DHT22;49686;51.880;5.632;2023-06-22T09:48:45;23.10;99.90
63537;DHT22;49686;51.880;5.632;2023-06-22T09:51:17;23.00;99.90
63537;DHT22;49686;51.880;5.632;2023-06-22T09:53:44;23.00;99.90
63537;DHT22;49686;51.880;5.632;2023-06-22T09:56:11;23.00;99.90
63537;DHT22;49686;51.880;5.632;2023-06-22T09:58:38;23.00;99.90
63537;DHT22;49686;51.880;5.632;2023-06-22T10:01:06;22.90;99.90
63537;DHT22;49686;51.880;5.632;2023-06-22T10:03:33;22.80;99.90
63537;DHT22;49686;51.880;5.632;2023-06-22T10:06:02;22.70;99.90
63537;DHT22;49686;51.880;5.632;2023-06-22T10:08:32;22.70;99.90
63537;DHT22;49686;51.880;5.632;2023-06-22T10:10:59;22.70;99.90
63537;DHT22;49686;51.880;5.632;2023-06-22T10:13:26;22.70;99.90
63537;DHT22;49686;51.880;5.632;2023-06-22T10:15:56;22.70;99.90
63537;DHT22;49686;51.880;5.632;2023-06-22T10:18:24;22.70;99.90
63537;DHT22;49686;51.880;5.632;2023-06-22T10:20:51;22.70;99.90
63537;DHT22;49686;51.880;5.632;2023-06-22T10:23:18;22.60;99.90
63537;DHT22;49686;51.880;5.632;2023-06-22T10:25:45;22.70;99.90
63537;DHT22;49686;51.880;5.632;2023-06-22T10:28:12;22.70;99.90
63537;DHT22;49686;51.880;5.632;2023-06-22T10:30:39;22.70;99.90
63537;DHT22;49686;51.880;5.632;2023-06-22T10:33:06;22.70;99.90
63537;DHT22;49686;51.880;5.632;2023-06-22T10:35:34;22.50;99.90
63537;DHT22;49686;51.880;5.632;2023-06-22T10:38:01;22.40;99.90
63537;DHT22;49686;51.880;5.632;2023-06-22T10:40:28;22.40;99.90
63537;DHT22;49686;51.880;5.632;2023-06-22T10:42:57;22.30;99.90
63537;DHT22;49686;51.880;5.632;2023-06-22T10:45:24;22.20;99.90
63537;DHT22;49686;51.880;5.632;2023-06-22T10:47:51;22.20;99.90
63537;DHT22;49686;51.880;5.632;2023-06-22T10:50:18;22.20;99.90
63537;DHT22;49686;51.880;5.632;2023-06-22T10:52:46;22.10;99.90
63537;DHT22;49686;51.880;5.632;2023-06-22T10:55:13;22.00;99.90
63537;DHT22;49686;51.880;5.632;2023-06-22T10:57:40;21.90;99.90
63537;DHT22;49686;51.880;5.632;2023-06-22T11:00:08;22.00;99.90
63537;DHT22;49686;51.880;5.632;2023-06-22T11:02:35;22.00;99.90
63537;DHT22;49686;51.880;5.632;2023-06-22T11:05:02;22.10;99.90
63537;DHT22;49686;51.880;5.632;2023-06-22T11:07:29;22.20;99.90
63537;DHT22;49686;51.880;5.632;2023-06-22T11:09:59;22.20;99.90
63537;DHT22;49686;51.880;5.632;2023-06-22T11:12:27;22.00;99.90
63537;DHT22;49686;51.880;5.632;2023-06-22T11:14:54;22.00;99.90
63537;DHT22;49686;51.880;5.632;2023-06-22T11:17:25;21.90;99.90
63537;DHT22;49686;51.880;5.632;2023-06-22T11:19:52;21.70;99.90
63537;DHT22;49686;51.880;5.632;2023-06-22T11:22:22;21.50;99.90
63537;DHT22;49686;51.880;5.632;2023-06-22T11:24:51;21.60;99.90
63537;DHT22;49686;51.880;5.632;2023-06-22T11:27:19;21.70;99.90
63537;DHT22;49686;51.880;5.632;2023-06-22T11:29:46;21.70;99.90
63537;DHT22;49686;51.880;5.632;2023-06-22T11:32:13;21.70;99.90
63537;DHT22;49686;51.880;5.632;2023-06-22T11:34:40;21.70;99.90
63537;DHT22;49686;51.880;5.632;2023-06-22T11:37:07;21.60;99.90
63537;DHT22;49686;51.880;5.632;2023-06-22T11:39:34;21.60;99.90
63537;DHT22;49686;51.880;5.632;2023-06-22T11:42:13;21.40;99.90
63537;DHT22;49686;51.880;5.632;2023-06-22T11:44:42;21.20;99.90
63537;DHT22;49686;51.880;5.632;2023-06-22T11:47:09;21.00;99.90
63537;DHT22;49686;51.880;5.632;2023-06-22T11:49:42;20.80;99.90
63537;DHT22;49686;51.880;5.632;2023-06-22T11:52:09;20.50;99.90
63537;DHT22;49686;51.880;5.632;2023-06-22T11:54:36;20.30;99.90
63537;DHT22;49686;51.880;5.632;2023-06-22T11:57:06;20.10;99.90
63537;DHT22;49686;51.880;5.632;2023-06-22T11:59:36;20.00;99.90
63537;DHT22;49686;51.880;5.632;2023-06-22T12:02:04;19.90;99.90
63537;DHT22;49686;51.880;5.632;2023-06-22T12:04:31;19.70;99.90
63537;DHT22;49686;51.880;5.632;2023-06-22T12:06:58;19.50;99.90
63537;DHT22;49686;51.880;5.632;2023-06-22T12:09:24;19.30;99.90
63537;DHT22;49686;51.880;5.632;2023-06-22T12:11:51;19.20;99.90
63537;DHT22;49686;51.880;5.632;2023-06-22T12:14:18;19.10;99.90
63537;DHT22;49686;51.880;5.632;2023-06-22T12:16:45;19.10;99.90
63537;DHT22;49686;51.880;5.632;2023-06-22T12:19:15;19.00;99.90
63537;DHT22;49686;51.880;5.632;2023-06-22T12:21:42;18.90;99.90
63537;DHT22;49686;51.880;5.632;2023-06-22T12:24:09;18.80;99.90
63537;DHT22;49686;51.880;5.632;2023-06-22T12:26:35;18.70;99.90
63537;DHT22;49686;51.880;5.632;2023-06-22T12:29:02;18.60;99.90
63537;DHT22;49686;51.880;5.632;2023-06-22T12:31:29;18.40;99.90
63537;DHT22;49686;51.880;5.632;2023-06-22T12:33:56;18.40;99.90
63537;DHT22;49686;51.880;5.632;2023-06-22T12:36:32;18.30;99.90
63537;DHT22;49686;51.880;5.632;2023-06-22T12:38:59;18.20;99.90
63537;DHT22;49686;51.880;5.632;2023-06-22T12:41:29;18.10;99.90
63537;DHT22;49686;51.880;5.632;2023-06-22T12:44:01;18.00;99.90
63537;DHT22;49686;51.880;5.632;2023-06-22T12:46:31;17.90;99.90
63537;DHT22;49686;51.880;5.632;2023-06-22T12:49:00;17.80;99.90
63537;DHT22;49686;51.880;5.632;2023-06-22T12:51:29;17.60;99.90
63537;DHT22;49686;51.880;5.632;2023-06-22T12:53:56;17.60;99.90
63537;DHT22;49686;51.880;5.632;2023-06-22T12:56:23;17.50;99.90
63537;DHT22;49686;51.880;5.632;2023-06-22T12:58:50;17.50;99.90
63537;DHT22;49686;51.880;5.632;2023-06-22T13:01:16;17.60;99.90
63537;DHT22;49686;51.880;5.632;2023-06-22T13:03:43;17.50;99.90
63537;DHT22;49686;51.880;5.632;2023-06-22T13:06:10;17.50;99.90
63537;DHT22;49686;51.880;5.632;2023-06-22T13:08:38;17.50;99.90
63537;DHT22;49686;51.880;5.632;2023-06-22T13:11:11;17.40;99.90
63537;DHT22;49686;51.880;5.632;2023-06-22T13:13:39;17.40;99.90
63537;DHT22;49686;51.880;5.632;2023-06-22T13:16:07;17.30;99.90
63537;DHT22;49686;51.880;5.632;2023-06-22T13:18:33;17.20;99.90
63537;DHT22;49686;51.880;5.632;2023-06-22T13:21:00;17.10;99.90
63537;DHT22;49686;51.880;5.632;2023-06-22T13:23:29;17.00;99.90
63537;DHT22;49686;51.880;5.632;2023-06-22T13:25:58;17.00;99.90
63537;DHT22;49686;51.880;5.632;2023-06-22T13:28:25;17.00;99.90
63537;DHT22;49686;51.880;5.632;2023-06-22T13:30:54;17.00;99.90
63537;DHT22;49686;51.880;5.632;2023-06-22T13:33:22;16.90;99.90
63537;DHT22;49686;51.880;5.632;2023-06-22T13:35:49;16.90;99.90
63537;DHT22;49686;51.880;5.632;2023-06-22T13:38:15;16.90;99.90
63537;DHT22;49686;51.880;5.632;2023-06-22T13:40:44;16.90;99.90
63537;DHT22;49686;51.880;5.632;2023-06-22T13:43:12;16.90;99.90
63537;DHT22;49686;51.880;5.632;2023-06-22T13:45:39;16.90;99.90
63537;DHT22;49686;51.880;5.632;2023-06-22T13:48:06;16.90;99.90
63537;DHT22;49686;51.880;5.632;2023-06-22T13:50:39;16.90;99.90
63537;DHT22;49686;51.880;5.632;2023-06-22T13:53:06;16.90;99.90
63537;DHT22;49686;51.880;5.632;2023-06-22T13:55:32;16.80;99.90
63537;DHT22;49686;51.880;5.632;2023-06-22T13:57:59;16.70;99.90
63537;DHT22;49686;51.880;5.632;2023-06-22T14:00:27;16.70;99.90
63537;DHT22;49686;51.880;5.632;2023-06-22T14:02:55;16.70;99.90
63537;DHT22;49686;51.880;5.632;2023-06-22T14:05:22;16.60;99.90
63537;DHT22;49686;51.880;5.632;2023-06-22T14:07:49;16.60;99.90
63537;DHT22;49686;51.880;5.632;2023-06-22T14:10:16;16.70;99.90
63537;DHT22;49686;51.880;5.632;2023-06-22T14:12:43;16.70;99.90
63537;DHT22;49686;51.880;5.632;2023-06-22T14:15:10;16.60;99.90
63537;DHT22;49686;51.880;5.632;2023-06-22T14:17:38;16.70;99.90
63537;DHT22;49686;51.880;5.632;2023-06-22T14:20:06;16.60;99.90
63537;DHT22;49686;51.880;5.632;2023-06-22T14:22:34;16.60;99.90
63537;DHT22;49686;51.880;5.632;2023-06-22T14:25:01;16.70;99.90
63537;DHT22;49686;51.880;5.632;2023-06-22T14:27:28;16.70;99.90
63537;DHT22;49686;51.880;5.632;2023-06-22T14:29:55;16.60;99.90
63537;DHT22;49686;51.880;5.632;2023-06-22T14:32:22;16.60;99.90
63537;DHT22;49686;51.880;5.632;2023-06-22T14:34:50;16.70;99.90
63537;DHT22;49686;51.880;5.632;2023-06-22T14:37:17;16.60;99.90
63537;DHT22;49686;51.880;5.632;2023-06-22T14:39:44;16.60;99.90
63537;DHT22;49686;51.880;5.632;2023-06-22T14:42:11;16.60;99.90
63537;DHT22;49686;51.880;5.632;2023-06-22T14:44:37;16.50;99.90
63537;DHT22;49686;51.880;5.632;2023-06-22T14:47:05;16.50;99.90
63537;DHT22;49686;51.880;5.632;2023-06-22T14:49:32;16.50;99.90
63537;DHT22;49686;51.880;5.632;2023-06-22T14:52:00;16.50;99.90
63537;DHT22;49686;51.880;5.632;2023-06-22T14:54:30;16.50;99.90
63537;DHT22;49686;51.880;5.632;2023-06-22T14:56:57;16.60;99.90
63537;DHT22;49686;51.880;5.632;2023-06-22T14:59:24;16.50;99.90
63537;DHT22;49686;51.880;5.632;2023-06-22T15:01:51;16.50;99.90
63537;DHT22;49686;51.880;5.632;2023-06-22T15:04:18;16.50;99.90
63537;DHT22;49686;51.880;5.632;2023-06-22T15:06:44;16.40;99.90
63537;DHT22;49686;51.880;5.632;2023-06-22T15:09:13;16.40;99.90
63537;DHT22;49686;51.880;5.632;2023-06-22T15:11:41;16.40;99.90
63537;DHT22;49686;51.880;5.632;2023-06-22T15:14:08;16.40;99.90
63537;DHT22;49686;51.880;5.632;2023-06-22T15:16:37;16.30;99.90
63537;DHT22;49686;51.880;5.632;2023-06-22T15:19:04;16.30;99.90
63537;DHT22;49686;51.880;5.632;2023-06-22T15:21:31;16.30;99.90
63537;DHT22;49686;51.880;5.632;2023-06-22T15:23:58;16.30;99.90
63537;DHT22;49686;51.880;5.632;2023-06-22T15:26:26;16.30;99.90
63537;DHT22;49686;51.880;5.632;2023-06-22T15:28:53;16.30;99.90
63537;DHT22;49686;51.880;5.632;2023-06-22T15:31:22;16.20;99.90
63537;DHT22;49686;51.880;5.632;2023-06-22T15:33:49;16.30;99.90